createdAt,value
2018-08-18T00:00:36.564Z,89.20
2018-08-18T00:03:06.248Z,89.20
2018-08-18T00:05:35.064Z,89.10
2018-08-18T00:08:04.023Z,89.20
2018-08-18T00:10:32.877Z,89.10
2018-08-18T00:13:01.627Z,89.50
2018-08-18T00:15:30.417Z,89.10
2018-08-18T00:17:59.164Z,89.40
2018-08-18T00:20:28.092Z,89.70
2018-08-18T00:22:56.888Z,89.80
2018-08-18T00:25:25.649Z,89.80
2018-08-18T00:27:55.784Z,89.80
2018-08-18T00:30:28.685Z,90.00
2018-08-18T00:32:57.394Z,89.80
2018-08-18T00:35:26.100Z,89.70
2018-08-18T00:37:54.825Z,89.70
2018-08-18T00:40:23.594Z,89.60
2018-08-18T00:42:52.240Z,89.60
2018-08-18T00:45:20.983Z,89.70
2018-08-18T00:47:50.531Z,89.90
2018-08-18T00:50:35.096Z,89.80
2018-08-18T00:53:04.955Z,89.50
2018-08-18T00:55:34.151Z,89.80
2018-08-18T00:58:03.008Z,89.90
2018-08-18T01:00:31.772Z,90.00
2018-08-18T01:03:01.196Z,90.10
2018-08-18T01:05:29.955Z,89.90
2018-08-18T01:07:58.675Z,89.80
2018-08-18T01:10:27.433Z,89.80
2018-08-18T01:12:56.149Z,89.70
2018-08-18T01:15:26.619Z,89.70
2018-08-18T01:17:55.741Z,89.80
2018-08-18T01:20:24.559Z,89.80
2018-08-18T01:22:59.881Z,89.70
2018-08-18T01:25:28.672Z,89.60
2018-08-18T01:27:57.436Z,89.70
2018-08-18T01:30:30.247Z,89.60
2018-08-18T01:32:58.928Z,89.30
2018-08-18T01:35:27.633Z,89.50
2018-08-18T01:37:56.357Z,89.90
2018-08-18T01:40:25.075Z,89.80
2018-08-18T01:42:53.798Z,89.80
2018-08-18T01:45:22.413Z,90.10
2018-08-18T01:47:51.102Z,90.10
2018-08-18T01:50:20.409Z,90.20
2018-08-18T01:52:49.080Z,90.40
2018-08-18T01:55:17.734Z,90.30
2018-08-18T01:57:47.631Z,90.10
2018-08-18T02:00:26.541Z,90.10
2018-08-18T02:02:55.330Z,90.10
2018-08-18T02:05:24.131Z,90.40
2018-08-18T02:07:52.829Z,90.50
2018-08-18T02:10:21.532Z,90.70
2018-08-18T02:13:02.211Z,90.80
2018-08-18T02:15:31.646Z,90.80
2018-08-18T02:18:00.380Z,90.90
2018-08-18T02:20:29.122Z,91.10
2018-08-18T02:22:57.842Z,91.10
2018-08-18T02:25:26.516Z,90.80
2018-08-18T02:27:55.155Z,90.80
2018-08-18T02:30:24.516Z,91.00
2018-08-18T02:32:53.286Z,91.30
2018-08-18T02:35:23.423Z,91.80
2018-08-18T02:37:52.196Z,91.80
2018-08-18T02:40:20.942Z,91.70
2018-08-18T02:42:49.676Z,91.80
2018-08-18T02:45:18.393Z,91.70
2018-08-18T02:47:47.204Z,91.70
2018-08-18T02:50:15.888Z,91.70
2018-08-18T02:52:44.571Z,91.80
2018-08-18T02:55:13.346Z,91.90
2018-08-18T02:57:43.355Z,92.10
2018-08-18T03:00:20.910Z,92.10
2018-08-18T03:02:49.658Z,92.10
2018-08-18T03:05:18.356Z,92.30
2018-08-18T03:07:51.435Z,92.30
2018-08-18T03:10:26.262Z,92.10
2018-08-18T03:12:58.376Z,92.00
2018-08-18T03:16:11.741Z,92.00
2018-08-18T03:18:52.955Z,92.10
2018-08-18T03:21:30.489Z,92.30
2018-08-18T03:24:19.905Z,92.50
2018-08-18T03:26:51.364Z,92.40
2018-08-18T03:29:21.059Z,92.40
2018-08-18T03:31:50.049Z,92.30
2018-08-18T03:34:19.058Z,92.20
2018-08-18T03:36:48.944Z,92.40
2018-08-18T03:39:29.703Z,92.20
2018-08-18T03:42:00.659Z,92.10
2018-08-18T03:44:40.744Z,92.00
2018-08-18T03:47:09.460Z,91.90
2018-08-18T03:49:38.204Z,91.80
2018-08-18T03:52:06.884Z,91.50
2018-08-18T03:54:35.581Z,91.10
2018-08-18T03:57:04.292Z,90.90
2018-08-18T03:59:33.084Z,90.70
2018-08-18T04:02:02.150Z,90.60
2018-08-18T04:04:32.220Z,90.70
2018-08-18T04:07:01.670Z,90.70
2018-08-18T04:09:31.459Z,90.80
2018-08-18T04:12:01.463Z,90.70
2018-08-18T04:14:35.288Z,91.00
2018-08-18T04:17:04.043Z,91.20
2018-08-18T04:19:32.810Z,91.70
2018-08-18T04:22:01.509Z,91.80
2018-08-18T04:24:36.357Z,92.00
2018-08-18T04:27:05.137Z,92.10
2018-08-18T04:29:33.848Z,92.00
2018-08-18T04:32:02.701Z,92.10
2018-08-18T04:34:31.429Z,92.30
2018-08-18T04:37:01.551Z,92.30
2018-08-18T04:39:30.219Z,92.20
2018-08-18T04:41:58.957Z,92.20
2018-08-18T04:44:27.595Z,92.10
2018-08-18T04:46:56.321Z,91.90
2018-08-18T04:49:24.979Z,91.80
2018-08-18T04:51:53.699Z,91.60
2018-08-18T04:54:22.425Z,91.60
2018-08-18T04:56:51.216Z,91.40
2018-08-18T04:59:20.263Z,91.40
2018-08-18T05:01:48.898Z,91.40
2018-08-18T05:04:17.604Z,91.90
2018-08-18T05:06:46.258Z,91.70
2018-08-18T05:09:15.444Z,91.50
2018-08-18T05:11:44.262Z,91.80
2018-08-18T05:14:12.939Z,91.90
2018-08-18T05:16:41.624Z,91.90
2018-08-18T05:19:10.297Z,91.90
2018-08-18T05:21:39.010Z,91.80
2018-08-18T05:24:21.224Z,92.00
2018-08-18T05:26:50.481Z,92.00
2018-08-18T05:29:19.216Z,92.00
2018-08-18T05:31:48.021Z,91.90
2018-08-18T05:34:16.822Z,91.80
2018-08-18T05:36:45.740Z,91.70
2018-08-18T05:39:14.427Z,91.50
2018-08-18T05:41:43.145Z,91.20
2018-08-18T05:44:11.890Z,91.10
2018-08-18T05:46:40.587Z,91.00
2018-08-18T05:49:15.012Z,90.80
2018-08-18T05:51:47.311Z,90.60
2018-08-18T05:54:18.220Z,90.40
2018-08-18T05:56:47.032Z,90.40
2018-08-18T05:59:15.781Z,90.30
2018-08-18T06:01:44.572Z,90.10
2018-08-18T06:04:17.399Z,90.00
2018-08-18T06:06:47.142Z,89.90
2018-08-18T06:09:18.027Z,89.70
2018-08-18T06:11:46.884Z,89.60
2018-08-18T06:14:16.098Z,89.30
2018-08-18T06:16:45.254Z,89.20
2018-08-18T06:19:14.144Z,88.90
2018-08-18T06:21:42.954Z,88.30
2018-08-18T06:24:12.138Z,88.20
2018-08-18T06:26:41.000Z,87.90
2018-08-18T06:29:09.837Z,86.00
2018-08-18T06:32:09.421Z,85.20
2018-08-18T06:34:38.126Z,84.90
2018-08-18T06:37:06.896Z,84.90
2018-08-18T06:39:50.137Z,84.50
2018-08-18T06:42:37.437Z,84.80
2018-08-18T06:45:09.441Z,84.20
2018-08-18T06:47:38.315Z,83.40
2018-08-18T06:50:08.800Z,83.60
2018-08-18T06:52:37.604Z,84.00
2018-08-18T06:55:07.338Z,81.30
2018-08-18T06:57:44.517Z,81.70
2018-08-18T07:00:17.553Z,82.70
2018-08-18T07:02:46.369Z,82.30
2018-08-18T07:05:16.623Z,82.60
2018-08-18T07:07:46.141Z,82.60
2018-08-18T07:10:31.336Z,82.40
2018-08-18T07:13:02.967Z,81.90
2018-08-18T07:15:33.237Z,81.40
2018-08-18T07:18:02.006Z,81.10
2018-08-18T07:20:30.868Z,80.60
2018-08-18T07:22:59.907Z,79.70
2018-08-18T07:25:29.078Z,79.90
2018-08-18T07:28:02.896Z,79.10
2018-08-18T07:30:32.292Z,78.80
2018-08-18T07:33:01.437Z,78.70
2018-08-18T07:35:30.220Z,79.40
2018-08-18T07:37:58.950Z,78.30
2018-08-18T07:40:33.602Z,77.70
2018-08-18T07:43:06.446Z,78.30
2018-08-18T07:45:41.345Z,76.90
2018-08-18T07:48:10.271Z,77.70
2018-08-18T07:50:39.092Z,78.10
2018-08-18T07:53:08.563Z,78.40
2018-08-18T07:55:37.623Z,77.40
2018-08-18T07:58:10.233Z,76.70
2018-08-18T08:00:39.800Z,76.60
2018-08-18T08:03:12.575Z,77.20
2018-08-18T08:05:41.486Z,78.70
2018-08-18T08:08:10.841Z,78.90
2018-08-18T08:10:39.667Z,78.90
2018-08-18T08:13:10.071Z,77.80
2018-08-18T08:15:39.086Z,77.20
2018-08-18T08:18:08.638Z,76.40
2018-08-18T08:20:37.361Z,76.20
2018-08-18T08:23:06.114Z,76.00
2018-08-18T08:25:34.895Z,74.40
2018-08-18T08:28:03.601Z,74.50
2018-08-18T08:30:32.403Z,75.50
2018-08-18T08:33:01.072Z,75.60
2018-08-18T08:35:29.825Z,75.10
2018-08-18T08:37:58.580Z,73.90
2018-08-18T08:40:27.232Z,72.50
2018-08-18T08:42:56.003Z,72.50
2018-08-18T08:45:25.142Z,72.50
2018-08-18T08:47:53.967Z,73.00
2018-08-18T08:50:24.133Z,73.00
2018-08-18T08:52:56.349Z,72.40
2018-08-18T08:55:26.476Z,72.40
2018-08-18T08:57:55.260Z,71.30
2018-08-18T09:00:23.993Z,71.10
2018-08-18T09:02:52.662Z,70.50
2018-08-18T09:05:21.556Z,70.80
2018-08-18T09:07:50.223Z,71.30
2018-08-18T09:10:19.062Z,71.00
2018-08-18T09:12:47.673Z,71.90
2018-08-18T09:15:17.390Z,71.00
2018-08-18T09:17:46.152Z,71.50
2018-08-18T09:20:18.113Z,70.10
2018-08-18T09:22:56.862Z,69.90
2018-08-18T09:25:28.421Z,68.50
2018-08-18T09:27:58.281Z,67.80
2018-08-18T09:30:28.300Z,65.40
2018-08-18T09:33:05.408Z,65.70
2018-08-18T09:35:50.586Z,66.90
2018-08-18T09:38:19.368Z,66.90
2018-08-18T09:40:48.300Z,67.70
2018-08-18T09:43:22.124Z,69.20
2018-08-18T09:45:51.117Z,67.70
2018-08-18T09:48:19.932Z,66.30
2018-08-18T09:50:49.125Z,66.40
2018-08-18T09:53:18.067Z,65.30
2018-08-18T09:55:47.125Z,65.10
2018-08-18T09:58:15.940Z,65.60
2018-08-18T10:00:44.847Z,67.60
2018-08-18T10:03:13.557Z,68.40
2018-08-18T10:05:42.417Z,65.70
2018-08-18T10:08:11.308Z,65.20
2018-08-18T10:10:40.280Z,65.30
2018-08-18T10:13:09.213Z,65.10
2018-08-18T10:15:38.061Z,64.00
2018-08-18T10:18:06.861Z,62.50
2018-08-18T10:20:40.770Z,63.60
2018-08-18T10:23:23.068Z,62.50
2018-08-18T10:25:53.108Z,58.90
2018-08-18T10:28:23.287Z,59.70
2018-08-18T10:30:53.672Z,61.70
2018-08-18T10:33:24.979Z,60.90
2018-08-18T10:35:55.977Z,61.70
2018-08-18T10:38:24.793Z,60.30
2018-08-18T10:40:53.554Z,59.70
2018-08-18T10:43:22.210Z,59.00
2018-08-18T10:45:50.895Z,60.30
2018-08-18T10:48:19.548Z,59.40
2018-08-18T10:51:20.217Z,59.20
2018-08-18T10:53:50.053Z,57.20
2018-08-18T10:56:18.864Z,56.80
2018-08-18T10:59:34.181Z,55.60
2018-08-18T11:02:05.903Z,56.20
2018-08-18T11:04:35.738Z,57.50
2018-08-18T11:07:05.197Z,56.40
2018-08-18T11:09:34.889Z,59.40
2018-08-18T11:12:04.249Z,59.30
2018-08-18T11:14:32.929Z,57.00
2018-08-18T11:17:02.452Z,58.90
2018-08-18T11:19:31.163Z,58.10
2018-08-18T11:24:07.505Z,58.10
2018-08-18T11:26:38.247Z,59.00
2018-08-18T11:29:13.953Z,60.90
2018-08-18T11:31:42.853Z,61.30
2018-08-18T11:34:11.598Z,60.70
2018-08-18T11:36:55.716Z,61.00
2018-08-18T11:39:24.407Z,60.10
2018-08-18T11:41:53.159Z,59.90
2018-08-18T11:44:21.817Z,61.50
2018-08-18T11:46:50.541Z,60.00
2018-08-18T11:49:20.105Z,60.00
2018-08-18T11:51:48.998Z,61.20
2018-08-18T11:54:17.699Z,58.00
2018-08-18T11:56:51.465Z,57.80
2018-08-18T11:59:20.192Z,58.40
2018-08-18T12:01:51.452Z,58.10
2018-08-18T12:04:21.325Z,58.60
2018-08-18T12:06:55.931Z,56.20
2018-08-18T12:09:24.824Z,57.00
2018-08-18T12:11:53.516Z,57.50
2018-08-18T12:14:22.513Z,57.80
2018-08-18T12:16:51.751Z,59.70
2018-08-18T12:19:20.557Z,58.60
2018-08-18T12:21:49.317Z,58.60
2018-08-18T12:24:23.155Z,59.70
2018-08-18T12:27:06.014Z,59.80
2018-08-18T12:29:34.752Z,60.50
2018-08-18T12:32:03.685Z,60.70
2018-08-18T12:34:32.353Z,60.00
2018-08-18T12:37:01.134Z,60.10
2018-08-18T12:39:29.776Z,58.70
2018-08-18T12:41:58.440Z,58.70
2018-08-18T12:44:31.291Z,57.30
2018-08-18T12:47:02.690Z,56.90
2018-08-18T12:49:32.081Z,56.80
2018-08-18T12:52:00.780Z,54.60
2018-08-18T12:54:29.490Z,55.30
2018-08-18T12:56:59.111Z,57.40
2018-08-18T12:59:27.897Z,57.70
2018-08-18T13:01:56.680Z,60.00
2018-08-18T13:04:25.477Z,59.70
2018-08-18T13:06:54.522Z,55.60
2018-08-18T13:09:24.756Z,54.60
2018-08-18T13:11:54.702Z,54.30
2018-08-18T13:14:26.793Z,55.50
2018-08-18T13:16:55.557Z,56.40
2018-08-18T13:19:26.165Z,56.70
2018-08-18T13:21:54.891Z,56.60
2018-08-18T13:24:23.552Z,55.50
2018-08-18T13:26:52.278Z,55.60
2018-08-18T13:29:21.008Z,53.40
2018-08-18T13:31:49.743Z,52.70
2018-08-18T13:34:19.134Z,53.20
2018-08-18T13:36:48.152Z,52.60
2018-08-18T13:39:18.249Z,52.20
2018-08-18T13:41:47.882Z,50.00
2018-08-18T13:44:30.975Z,46.90
2018-08-18T13:46:59.658Z,46.70
2018-08-18T13:49:28.553Z,47.90
2018-08-18T13:51:57.313Z,48.80
2018-08-18T13:54:26.033Z,48.40
2018-08-18T13:56:54.723Z,45.20
2018-08-18T13:59:38.656Z,45.20
2018-08-18T14:02:07.729Z,45.00
2018-08-18T14:04:36.540Z,45.60
2018-08-18T14:07:05.257Z,45.30
2018-08-18T14:09:33.937Z,44.80
2018-08-18T14:12:07.857Z,42.50
2018-08-18T14:14:36.508Z,43.50
2018-08-18T14:17:05.195Z,46.90
2018-08-18T14:19:33.885Z,49.30
2018-08-18T14:22:07.294Z,50.30
2018-08-18T14:24:37.033Z,50.40
2018-08-18T14:27:12.872Z,50.20
2018-08-18T14:29:41.533Z,52.70
2018-08-18T14:32:15.839Z,53.10
2018-08-18T14:34:51.546Z,52.20
2018-08-18T14:37:20.969Z,52.10
2018-08-18T14:39:49.729Z,53.10
2018-08-18T14:42:18.467Z,50.60
2018-08-18T14:44:47.232Z,50.10
2018-08-18T14:47:15.884Z,49.60
2018-08-18T14:49:44.580Z,50.40
2018-08-18T14:52:13.349Z,49.60
2018-08-18T14:54:41.992Z,47.90
2018-08-18T14:57:10.761Z,48.40
2018-08-18T14:59:39.444Z,46.70
2018-08-18T15:02:08.589Z,48.00
2018-08-18T15:04:37.233Z,49.40
2018-08-18T15:07:05.945Z,50.40
2018-08-18T15:09:42.802Z,50.20
2018-08-18T15:12:11.559Z,50.50
2018-08-18T15:14:40.291Z,50.40
2018-08-18T15:17:09.074Z,50.70
2018-08-18T15:19:38.008Z,49.50
2018-08-18T15:22:11.032Z,50.10
2018-08-18T15:24:40.620Z,50.50
2018-08-18T15:27:09.408Z,50.90
2018-08-18T15:29:38.101Z,48.20
2018-08-18T15:32:06.848Z,48.20
2018-08-18T15:34:42.111Z,48.50
2018-08-18T15:37:11.934Z,49.20
2018-08-18T15:39:40.617Z,49.70
2018-08-18T15:42:09.463Z,50.60
2018-08-18T15:44:47.009Z,51.60
2018-08-18T15:47:15.677Z,48.50
2018-08-18T15:49:44.572Z,48.20
2018-08-18T15:52:14.539Z,49.10
2018-08-18T15:54:43.270Z,48.00
2018-08-18T15:57:12.521Z,48.10
2018-08-18T15:59:41.164Z,49.40
2018-08-18T16:02:09.907Z,47.00
2018-08-18T16:04:38.653Z,46.50
2018-08-18T16:07:09.457Z,46.20
2018-08-18T16:09:38.189Z,48.00
2018-08-18T16:12:06.918Z,47.60
2018-08-18T16:14:35.596Z,47.90
2018-08-18T16:17:04.306Z,49.10
2018-08-18T16:19:34.421Z,49.80
2018-08-18T16:22:03.751Z,50.40
2018-08-18T16:24:34.862Z,50.60
2018-08-18T16:27:07.165Z,51.70
2018-08-18T16:29:36.315Z,51.70
2018-08-18T16:32:18.067Z,51.40
2018-08-18T16:34:48.104Z,50.80
2018-08-18T16:37:16.904Z,51.80
2018-08-18T16:39:45.739Z,50.90
2018-08-18T16:42:15.106Z,51.00
2018-08-18T16:44:43.819Z,52.00
2018-08-18T16:47:12.528Z,51.90
2018-08-18T16:49:41.228Z,52.60
2018-08-18T16:52:10.105Z,52.10
2018-08-18T16:54:38.824Z,52.40
2018-08-18T16:57:07.607Z,52.70
2018-08-18T16:59:37.021Z,52.60
2018-08-18T17:02:06.769Z,53.20
2018-08-18T17:04:35.508Z,53.20
2018-08-18T17:07:09.922Z,54.80
2018-08-18T17:09:41.516Z,54.80
2018-08-18T17:12:18.271Z,55.80
2018-08-18T17:14:46.962Z,55.40
2018-08-18T17:17:15.671Z,55.40
2018-08-18T17:19:44.363Z,56.30
2018-08-18T17:22:14.879Z,56.10
2018-08-18T17:24:43.565Z,56.10
2018-08-18T17:27:12.346Z,56.70
2018-08-18T17:29:45.653Z,56.40
2018-08-18T17:32:14.348Z,56.80
2018-08-18T17:34:43.012Z,57.40
2018-08-18T17:37:11.737Z,58.20
2018-08-18T17:39:40.462Z,58.10
2018-08-18T17:42:09.247Z,57.90
2018-08-18T17:44:37.973Z,57.80
2018-08-18T17:47:09.077Z,58.20
2018-08-18T17:49:43.887Z,58.10
2018-08-18T17:52:12.609Z,57.70
2018-08-18T17:54:41.436Z,58.50
2018-08-18T17:57:10.225Z,59.00
2018-08-18T17:59:39.025Z,58.90
2018-08-18T18:02:13.257Z,59.30
2018-08-18T18:04:42.012Z,60.60
2018-08-18T18:07:11.663Z,61.20
2018-08-18T18:09:40.397Z,62.00
2018-08-18T18:12:25.833Z,62.80
2018-08-18T18:14:54.935Z,63.10
2018-08-18T18:17:24.210Z,63.70
2018-08-18T18:19:53.984Z,64.10
2018-08-18T18:22:22.677Z,65.20
2018-08-18T18:24:51.362Z,65.90
2018-08-18T18:27:20.061Z,66.60
2018-08-18T18:29:48.781Z,67.00
2018-08-18T18:32:17.576Z,67.40
2018-08-18T18:34:47.661Z,67.60
2018-08-18T18:37:16.233Z,67.80
2018-08-18T18:39:58.918Z,67.90
2018-08-18T18:42:27.844Z,68.10
2018-08-18T18:44:57.237Z,68.40
2018-08-18T18:47:25.961Z,68.60
2018-08-18T18:49:54.639Z,69.10
2018-08-18T18:52:23.413Z,69.30
2018-08-18T18:54:52.381Z,69.20
2018-08-18T18:57:21.275Z,69.50
2018-08-18T18:59:54.931Z,69.90
2018-08-18T19:02:28.505Z,70.60
2018-08-18T19:04:57.178Z,71.00
2018-08-18T19:07:25.888Z,71.20
2018-08-18T19:09:59.791Z,71.40
2018-08-18T19:12:28.713Z,71.50
2018-08-18T19:14:57.525Z,71.90
2018-08-18T19:17:26.225Z,71.90
2018-08-18T19:20:05.387Z,72.20
2018-08-18T19:22:34.104Z,72.50
2018-08-18T19:25:02.789Z,72.70
2018-08-18T19:27:31.542Z,73.40
2018-08-18T19:30:00.593Z,73.80
2018-08-18T19:32:29.297Z,74.10
2018-08-18T19:34:57.997Z,74.00
2018-08-18T19:37:26.788Z,74.30
2018-08-18T19:39:55.840Z,74.50
2018-08-18T19:42:24.572Z,74.80
2018-08-18T19:45:12.872Z,74.80
2018-08-18T19:47:41.722Z,74.60
2018-08-18T19:50:10.988Z,74.50
2018-08-18T19:52:39.745Z,74.60
2018-08-18T19:55:10.992Z,74.80
2018-08-18T19:57:40.461Z,75.20
2018-08-18T20:00:17.904Z,75.30
2018-08-18T20:02:59.071Z,75.30
2018-08-18T20:05:28.037Z,75.40
2018-08-18T20:07:57.041Z,75.60
2018-08-18T20:10:25.738Z,75.80
2018-08-18T20:12:54.506Z,75.80
2018-08-18T20:15:23.229Z,76.40
2018-08-18T20:17:51.917Z,76.40
2018-08-18T20:20:23.507Z,76.80
2018-08-18T20:22:53.077Z,76.90
2018-08-18T20:25:21.718Z,76.60
2018-08-18T20:27:50.384Z,76.50
2018-08-18T20:30:19.117Z,76.50
2018-08-18T20:32:47.942Z,76.50
2018-08-18T20:35:16.841Z,76.60
2018-08-18T20:37:45.648Z,77.00
2018-08-18T20:40:15.211Z,77.20
2018-08-18T20:42:44.727Z,77.20
2018-08-18T20:45:14.542Z,77.10
2018-08-18T20:47:44.823Z,77.10
2018-08-18T20:50:14.265Z,77.00
2018-08-18T20:52:43.124Z,77.10
2018-08-18T20:55:12.006Z,77.30
2018-08-18T20:57:40.735Z,77.30
2018-08-18T21:00:11.032Z,77.60
2018-08-18T21:02:39.712Z,77.40
2018-08-18T21:05:10.510Z,77.40
2018-08-18T21:07:39.273Z,77.70
2018-08-18T21:10:09.540Z,77.40
2018-08-18T21:12:45.922Z,77.20
2018-08-18T21:15:15.415Z,77.10
2018-08-18T21:17:44.110Z,77.20
2018-08-18T21:20:15.007Z,77.20
2018-08-18T21:22:43.786Z,77.70
2018-08-18T21:25:13.428Z,77.70
2018-08-18T21:27:42.699Z,77.90
2018-08-18T21:30:16.918Z,77.80
2018-08-18T21:32:45.664Z,77.70
2018-08-18T21:35:15.124Z,77.60
2018-08-18T21:37:43.918Z,77.60
2018-08-18T21:40:12.712Z,78.00
2018-08-18T21:42:41.410Z,78.40
2018-08-18T21:45:12.332Z,78.30
2018-08-18T21:47:40.994Z,78.20
2018-08-18T21:50:09.778Z,78.70
2018-08-18T21:52:38.759Z,78.40
2018-08-18T21:55:07.471Z,78.30
2018-08-18T21:57:51.464Z,78.40
2018-08-18T22:00:20.309Z,78.40
2018-08-18T22:02:49.042Z,78.40
2018-08-18T22:05:17.789Z,78.40
2018-08-18T22:07:52.449Z,78.40
2018-08-18T22:10:21.685Z,78.80
2018-08-18T22:12:50.524Z,79.20
2018-08-18T22:15:20.164Z,79.90
2018-08-18T22:17:49.993Z,80.10
2018-08-18T22:20:20.129Z,79.80
2018-08-18T22:22:48.920Z,79.70
2018-08-18T22:25:17.650Z,79.60
2018-08-18T22:27:46.408Z,79.60
2018-08-18T22:30:16.432Z,80.00
2018-08-18T22:32:46.017Z,80.20
2018-08-18T22:35:15.019Z,80.10
2018-08-18T22:37:43.728Z,80.10
2018-08-18T22:40:13.391Z,80.20
2018-08-18T22:42:42.104Z,80.50
2018-08-18T22:45:27.579Z,80.60
2018-08-18T22:47:56.514Z,80.70
2018-08-18T22:50:25.357Z,81.30
2018-08-18T22:52:54.815Z,81.60
2018-08-18T22:55:23.711Z,82.00
2018-08-18T22:57:57.577Z,82.30
2018-08-18T23:00:26.381Z,82.60
2018-08-18T23:02:55.181Z,82.70
2018-08-18T23:05:23.905Z,83.10
2018-08-18T23:07:55.340Z,83.00
2018-08-18T23:10:27.928Z,83.10
2018-08-18T23:12:56.592Z,83.40
2018-08-18T23:15:25.674Z,83.50
2018-08-18T23:17:54.552Z,83.60
2018-08-18T23:20:23.600Z,83.70
2018-08-18T23:22:58.973Z,83.90
2018-08-18T23:25:29.285Z,84.10
2018-08-18T23:27:58.552Z,84.20
2018-08-18T23:30:33.246Z,84.30
2018-08-18T23:33:03.487Z,84.20
2018-08-18T23:35:32.467Z,84.00
2018-08-18T23:38:01.564Z,84.00
2018-08-18T23:40:30.330Z,84.00
2018-08-18T23:42:59.066Z,84.10
2018-08-18T23:45:37.048Z,84.20
2018-08-18T23:48:09.768Z,84.20
2018-08-18T23:50:39.830Z,84.50
2018-08-18T23:53:13.558Z,84.50
2018-08-18T23:55:54.844Z,84.60
2018-08-18T23:58:23.610Z,84.50
